Main page
METAR-TAF:

METAR-TAF

Airports :

Zenata – Messali El Hadj Airport

Tlemcen, Algeria

latitude: 35-01N, longitude: 001-28W, elevation: 247 m

Current weather observation

The report was made 32 minutes ago, at 11:00 UTC
Wind 4 kt from the North
Temperature 28°C
Humidity 23%
Pressure 1018 hPa
Visibility 10 km or more
no clouds below 1500 m and no cumulonimbus

METAR: DAON 211100Z 01004KT CAVOK 28/05 Q1018

Time: 12:32 (11:32 UTC)

Forecast

The report was made 6 hours and 32 minutes ago, at 05:00 UTC
Forecast valid from 21 at 06 UTC to 22 at 06 UTC
Wind 2 kt from variable directions
Visibility 10 km or more
Few clouds at a height of 2600 ft
Scattered clouds at a height of 23300 ft
Becoming
from 21 at 09 UTC to 21 at 12 UTC
Wind 12 kt from the North/Northeast
Becoming
from 21 at 20 UTC to 21 at 23 UTC
Wind 2 kt from variable directions

TAF: DAON 210500Z 2106/2206 VRB02KT 9999 FEW026 SCT233 BECMG 2109/2112 02012KT BECMG 2120/2123 VRB02KT

Weather observations and forecasts of more than 4000 airports (METAR and TAF reports).

The available stations are represented by yellow and red dots on the map.

Hover mouse over dot to see the name of the station.

Then click to see weather observations and forecasts.

To change the map : click on the green buttons with a black cross to zoom in, on the green button with a dash to zoom out, or on the green arrows for adjacent maps.


METAR-TAF: